Historyczne dane pomiarowe

Dodano dane terminowe – wersja testowa.

Dane z okresu 1951-2019

Wersja bazy: 1.34 [2019-03-16, lista zmian], aktualizacja planowana na 2019-04-15

Dane meteo z obszaru Polski uzyskane na podstawie danych udostępnionych przez Instytut Meteorologii i Gospodarki Wodnej – Państwowy Instytut Badawczy.

 

Wybierz Datę:    

       

TemperaturaWilgotnośćWiatrCiśnienieOpadyŚniegCzas trwania zjawisk
 Stacja t tx tn tng RH VA  wxwx mslp ppp RRR   cm mm wxwxwxwxwxwxwx
1956-11-09 -8.6 -4.6-10.3--- 3.0 1.7---- 0.0-- 15---------
1956-11-08 -7.6 -3.4-10.2--- 5.0 4.3---- 0.1-- 18---------
1956-11-07 -3.4 -1.9 -4.2--- 8.0 8.3---- 6.2-- 14---------
1956-11-06 -2.0 -0.4 -2.8--- 8.0 4.7---- 5.8-- 10---------
1956-11-05 -3.2 -2.2 -6.9--- 8.0 4.0---- 6.1------------
1956-11-04 -4.0 0.2 -7.0--- 1.3 1.3---- 0.0------------
1956-11-03 -3.0 -0.1 -4.8--- 7.3 3.3---- 0.6------------
1956-11-02 -2.0 3.1 -6.3--- 6.3 2.3---- 0.0------------
1956-11-01 -3.3 6.1-10.0--- 0.0 2.0---- 0.0------------
1956-10-31 -6.6 1.7 -8.3--- 6.0 4.7---- 0.0------------
1956-10-30 1.8 6.0 0.3--- 8.0 2.3---- 0.4------------
1956-10-29 1.8 4.2 0.9--- 6.7 3.0---- 1.7------------
1956-10-28 6.0 10.4 2.8--- 6.7 3.0---- 3.4------------
1956-10-27 9.2 12.3 5.8--- 6.3 3.7---- 0.6------------
1956-10-26 8.0 13.4 4.2--- 4.7 2.7---- 0.0------------
1956-10-25 5.8 8.3 2.6--- 8.0 3.0---- 0.0------------
1956-10-24 7.6 12.4 3.4--- 4.7 2.0---- 0.0------------
1956-10-23 9.2 16.2 5.1--- 0.0 1.0---- 0.0------------
1956-10-22 9.8 16.9 5.3--- 1.0 2.7---- 0.0------------
1956-10-21 9.6 13.8 7.8--- 5.0 1.3---- 0.3------------
1956-10-20 7.9 12.5 5.6--- 6.7 2.3---- 0.1------------
1956-10-19 6.8 10.3 3.7--- 7.0 2.7---- 0.4------------
1956-10-18 5.4 11.0 0.9--- 6.0 2.0---- 0.2------------
1956-10-17 5.0 12.6 -0.7--- 0.0 1.7---- 0.0------------
1956-10-16 3.4 9.2 -0.4--- 0.0 0.7---- 0.0------------
1956-10-15 3.0 8.9 0.8--- 0.3 2.7---- 0.0------------
1956-10-14 6.2 9.2 4.3--- 5.3 9.3---- 4.1------------
1956-10-13 6.0 10.2 0.8--- 8.0 3.7---- 0.1------------
1956-10-12 4.4 11.2 0.6--- 5.0 1.7---- 0.0------------
1956-10-11 2.4 7.3 -1.5--- 4.3 1.7---- 0.0------------
1956-10-10 1.8 4.1 -0.1--- 5.3 5.0---- 0.0------------
1956-10-09 3.0 7.8 -0.3--- 4.0 3.0---- 2.2------------
1956-10-08 2.4 8.3 -1.6--- 2.0 1.0---- 0.0------------
1956-10-07 2.5 6.7 0.2--- 4.0 5.7---- 0.0-- 5---------
1956-10-06 4.0 8.8 0.1--- 8.0 5.0---- 12.1------------
1956-10-05 8.9 14.3 5.1--- 6.7 1.3---- 12.2------------
1956-10-04 9.3 13.0 7.9--- 8.0 1.3---- 1.1------------
1956-10-03 14.8 20.9 12.5--- 4.3 3.0---- 1.5------------
1956-10-02 15.8 22.2 10.5--- 1.3 5.0---- 0.0------------
1956-10-01 14.9 21.5 8.2--- 4.7 2.7---- 0.0------------
1956-09-30 13.2 19.6 9.7--- 1.7 1.0---- 0.0------------
1956-09-29 12.2 18.6 8.7--- 4.3 2.7---- 0.0------------
1956-09-28 10.5 15.4 10.1--- 7.3 1.7---- 12.8------------
1956-09-27 14.6 19.7 9.6--- 5.7 4.7---- 1.7------------
1956-09-26 12.7 18.4 7.9--- 0.0 3.7---- 0.0------------
1956-09-25 11.6 17.4 6.3--- 1.3 3.3---- 0.0------------
1956-09-24 9.8 16.5 5.2--- 3.0 1.7---- 0.0------------
1956-09-23 10.7 17.3 7.6--- 0.0 2.3---- 0.0------------
1956-09-22 12.6 19.4 5.3--- 0.0 1.7---- 0.0------------
1956-09-21 10.6 17.4 4.4--- 0.0 1.7---- 0.0------------
1956-09-20 8.7 15.1 2.6--- 2.3 2.7---- 0.0------------
1956-09-19 6.0 11.8 2.0--- 0.7 1.3---- 0.0------------
1956-09-18 4.8 8.5 3.1--- 4.7 3.7---- 1.6------------
1956-09-17 6.5 12.0 5.1--- 7.7 3.7---- 10.5------------
1956-09-16 11.8 18.4 7.1--- 6.7 1.7---- 0.1------------
1956-09-15 10.5 16.4 5.4--- 4.0 2.3---- 0.0------------
1956-09-14 6.3 8.1 3.5--- 7.7 5.0---- 0.0------------
1956-09-13 4.7 9.7 3.5--- 6.0 5.7---- 6.5------------
1956-09-12 8.5 12.4 5.6--- 7.7 4.7---- 11.7------------
1956-09-11 13.5 18.8 11.4--- 6.3 3.7---- 0.9------------
206.9 ms

 

Źródłem pochodzenia danych jest Instytut Meteorologii i Gospodarki Wodnej – Państwowy Instytut Badawczy. Dane Instytutu Meteorologii i Gospodarki Wodnej – Państwowego Instytutu Badawczego zostały przetworzone.

Dane źródłowe można odnaleźć na stronie https://dane.imgw.pl